createdAt,value
2018-10-09T00:00:23.630Z,4.00
2018-10-09T00:01:23.624Z,4.00
2018-10-09T00:02:23.621Z,4.00
2018-10-09T00:03:23.716Z,4.00
2018-10-09T00:04:23.659Z,4.00
2018-10-09T00:05:23.625Z,4.00
2018-10-09T00:06:23.652Z,4.00
2018-10-09T00:07:23.598Z,4.00
2018-10-09T00:08:23.594Z,4.00
2018-10-09T00:09:23.593Z,4.00
2018-10-09T00:10:23.589Z,4.00
2018-10-09T00:11:23.584Z,4.00
2018-10-09T00:12:23.578Z,4.00
2018-10-09T00:13:23.572Z,4.00
2018-10-09T00:14:23.570Z,4.00
2018-10-09T00:15:23.563Z,4.00
2018-10-09T00:16:23.567Z,4.00
2018-10-09T00:17:23.555Z,4.00
2018-10-09T00:18:23.583Z,4.00
2018-10-09T00:19:23.610Z,4.00
2018-10-09T00:20:23.628Z,4.00
2018-10-09T00:21:23.577Z,4.00
2018-10-09T00:22:25.127Z,4.00
2018-10-09T00:23:23.531Z,4.00
2018-10-09T00:24:23.530Z,4.00
2018-10-09T00:25:23.522Z,4.00
2018-10-09T00:26:23.518Z,4.00
2018-10-09T00:27:23.514Z,4.00
2018-10-09T00:28:23.509Z,4.00
2018-10-09T00:29:23.504Z,4.00
2018-10-09T00:30:23.500Z,4.00
2018-10-09T00:31:23.495Z,4.00
2018-10-09T00:32:23.512Z,4.00
2018-10-09T00:33:23.486Z,4.00
2018-10-09T00:34:23.482Z,4.00
2018-10-09T00:35:23.479Z,4.00
2018-10-09T00:36:23.474Z,4.00
2018-10-09T00:37:23.470Z,4.00
2018-10-09T00:38:23.465Z,4.00
2018-10-09T00:39:23.462Z,4.00
2018-10-09T00:40:23.453Z,4.00
2018-10-09T00:41:23.453Z,4.00
2018-10-09T00:42:23.453Z,4.00
2018-10-09T00:43:23.449Z,4.00
2018-10-09T00:44:23.438Z,4.00
2018-10-09T00:45:23.435Z,4.00
2018-10-09T00:46:23.505Z,4.00
2018-10-09T00:47:23.425Z,4.00
2018-10-09T00:48:23.558Z,4.00
2018-10-09T00:49:23.420Z,4.00
2018-10-09T00:50:23.416Z,4.00
2018-10-09T00:51:23.420Z,4.00
2018-10-09T00:52:23.407Z,4.00
2018-10-09T00:53:23.411Z,4.00
2018-10-09T00:54:23.395Z,4.00
2018-10-09T00:55:24.136Z,4.00
2018-10-09T00:56:23.400Z,4.00
2018-10-09T00:57:24.168Z,4.00
2018-10-09T00:58:23.381Z,4.00
2018-10-09T00:59:23.372Z,8.00
2018-10-09T01:00:23.366Z,4.00
2018-10-09T01:01:23.364Z,8.00
2018-10-09T01:02:23.360Z,4.00
2018-10-09T01:03:23.355Z,4.00
2018-10-09T01:04:23.352Z,4.00
2018-10-09T01:05:23.346Z,4.00
2018-10-09T01:06:23.346Z,4.00
2018-10-09T01:07:23.336Z,4.00
2018-10-09T01:08:23.333Z,4.00
2018-10-09T01:09:23.341Z,4.00
2018-10-09T01:10:23.396Z,4.00
2018-10-09T01:11:23.320Z,4.00
2018-10-09T01:12:23.318Z,4.00
2018-10-09T01:13:23.321Z,4.00
2018-10-09T01:14:23.306Z,4.00
2018-10-09T01:15:23.303Z,4.00
2018-10-09T01:16:23.311Z,4.00
2018-10-09T01:17:23.327Z,8.00
2018-10-09T01:18:23.289Z,4.00
2018-10-09T01:19:23.282Z,4.00
2018-10-09T01:20:23.279Z,4.00
2018-10-09T01:21:23.273Z,4.00
2018-10-09T01:22:23.271Z,4.00
2018-10-09T01:23:23.267Z,4.00
2018-10-09T01:24:23.270Z,4.00
2018-10-09T01:25:23.258Z,4.00
2018-10-09T01:26:23.253Z,4.00
2018-10-09T01:27:23.251Z,4.00
2018-10-09T01:28:23.249Z,4.00
2018-10-09T01:29:23.240Z,4.00
2018-10-09T01:30:23.235Z,4.00
2018-10-09T01:31:23.230Z,4.00
2018-10-09T01:32:23.226Z,4.00
2018-10-09T01:33:23.222Z,4.00
2018-10-09T01:34:23.219Z,4.00
2018-10-09T01:35:23.212Z,4.00
2018-10-09T01:36:23.211Z,4.00
2018-10-09T01:37:23.203Z,4.00
2018-10-09T01:38:23.210Z,8.00
2018-10-09T01:39:23.199Z,4.00
2018-10-09T01:40:23.187Z,4.00
2018-10-09T01:41:23.187Z,4.00
2018-10-09T01:42:23.192Z,4.00
2018-10-09T01:43:23.177Z,4.00
2018-10-09T01:44:23.172Z,4.00
2018-10-09T01:45:23.168Z,8.00
2018-10-09T01:46:23.163Z,4.00
2018-10-09T01:47:23.159Z,4.00
2018-10-09T01:48:23.153Z,4.00
2018-10-09T01:49:23.148Z,4.00
2018-10-09T01:50:23.145Z,4.00
2018-10-09T01:51:23.140Z,4.00
2018-10-09T01:52:23.136Z,4.00
2018-10-09T01:53:23.135Z,8.00
2018-10-09T01:54:23.125Z,4.00
2018-10-09T01:55:23.123Z,4.00
2018-10-09T01:56:23.122Z,4.00
2018-10-09T01:57:23.117Z,4.00
2018-10-09T01:58:23.109Z,4.00
2018-10-09T01:59:23.104Z,4.00
2018-10-09T02:00:23.100Z,4.00
2018-10-09T02:01:23.096Z,8.00
2018-10-09T02:02:23.094Z,4.00
2018-10-09T02:03:23.088Z,4.00
2018-10-09T02:04:23.082Z,4.00
2018-10-09T02:05:23.079Z,4.00
2018-10-09T02:06:23.073Z,4.00
2018-10-09T02:07:23.075Z,4.00
2018-10-09T02:08:23.063Z,4.00
2018-10-09T02:09:23.060Z,4.00
2018-10-09T02:10:23.055Z,4.00
2018-10-09T02:11:23.049Z,4.00
2018-10-09T02:12:23.046Z,4.00
2018-10-09T02:13:23.039Z,4.00
2018-10-09T02:14:23.037Z,4.00
2018-10-09T02:15:23.031Z,4.00
2018-10-09T02:16:23.026Z,4.00
2018-10-09T02:17:23.021Z,4.00
2018-10-09T02:18:23.161Z,4.00
2018-10-09T02:19:23.013Z,4.00
2018-10-09T02:20:23.008Z,4.00
2018-10-09T02:21:23.014Z,4.00
2018-10-09T02:22:23.001Z,4.00
2018-10-09T02:23:22.996Z,8.00
2018-10-09T02:24:22.988Z,4.00
2018-10-09T02:25:22.984Z,4.00
2018-10-09T02:26:22.981Z,4.00
2018-10-09T02:27:22.975Z,4.00
2018-10-09T02:28:22.970Z,4.00
2018-10-09T02:29:22.967Z,4.00
2018-10-09T02:30:22.964Z,4.00
2018-10-09T02:31:22.963Z,4.00
2018-10-09T02:32:22.950Z,4.00
2018-10-09T02:33:22.997Z,4.00
2018-10-09T02:34:22.942Z,4.00
2018-10-09T02:35:22.945Z,4.00
2018-10-09T02:36:22.934Z,4.00
2018-10-09T02:37:22.929Z,4.00
2018-10-09T02:38:22.925Z,4.00
2018-10-09T02:39:22.920Z,4.00
2018-10-09T02:40:22.915Z,4.00
2018-10-09T02:41:22.910Z,4.00
2018-10-09T02:42:22.904Z,4.00
2018-10-09T02:43:22.901Z,4.00
2018-10-09T02:44:22.895Z,4.00
2018-10-09T02:45:22.947Z,4.00
2018-10-09T02:46:22.893Z,4.00
2018-10-09T02:47:22.883Z,4.00
2018-10-09T02:48:22.879Z,4.00
2018-10-09T02:49:22.873Z,4.00
2018-10-09T02:50:22.870Z,4.00
2018-10-09T02:51:22.865Z,4.00
2018-10-09T02:52:22.858Z,4.00
2018-10-09T02:53:22.854Z,4.00
2018-10-09T02:54:22.851Z,4.00
2018-10-09T02:55:22.854Z,4.00
2018-10-09T02:56:22.840Z,4.00
2018-10-09T02:57:22.838Z,4.00
2018-10-09T02:58:22.833Z,4.00
2018-10-09T02:59:22.827Z,4.00
2018-10-09T03:00:22.825Z,4.00
2018-10-09T03:01:22.817Z,4.00
2018-10-09T03:02:22.814Z,4.00
2018-10-09T03:03:22.809Z,4.00
2018-10-09T03:04:22.804Z,4.00
2018-10-09T03:05:22.798Z,4.00
2018-10-09T03:06:22.795Z,4.00
2018-10-09T03:07:22.791Z,4.00
2018-10-09T03:08:22.798Z,4.00
2018-10-09T03:09:22.866Z,4.00
2018-10-09T03:10:22.816Z,4.00
2018-10-09T03:11:22.860Z,4.00
2018-10-09T03:12:22.790Z,4.00
2018-10-09T03:13:22.770Z,4.00
2018-10-09T03:14:22.765Z,8.00
2018-10-09T03:15:22.770Z,8.00
2018-10-09T03:16:22.769Z,8.00
2018-10-09T03:17:22.754Z,8.00
2018-10-09T03:18:37.786Z,8.00
2018-10-09T03:19:22.736Z,8.00
2018-10-09T03:20:22.731Z,8.00
2018-10-09T03:21:22.724Z,8.00
2018-10-09T03:22:22.739Z,8.00
2018-10-09T03:23:22.715Z,8.00
2018-10-09T03:24:22.709Z,8.00
2018-10-09T03:25:22.877Z,8.00
2018-10-09T03:26:22.701Z,8.00
2018-10-09T03:27:22.714Z,8.00
2018-10-09T03:28:22.689Z,8.00
2018-10-09T03:29:22.686Z,8.00
2018-10-09T03:30:22.681Z,8.00
2018-10-09T03:31:22.704Z,8.00
2018-10-09T03:32:22.672Z,8.00
2018-10-09T03:33:22.697Z,8.00
2018-10-09T03:34:22.664Z,8.00
2018-10-09T03:35:22.697Z,8.00
2018-10-09T03:36:22.654Z,8.00
2018-10-09T03:37:22.665Z,8.00
2018-10-09T03:38:22.653Z,8.00
2018-10-09T03:39:22.659Z,8.00
2018-10-09T03:40:22.669Z,8.00
2018-10-09T03:41:22.673Z,8.00
2018-10-09T03:42:22.672Z,8.00
2018-10-09T03:43:22.653Z,8.00
2018-10-09T03:44:22.665Z,8.00
2018-10-09T03:45:22.611Z,8.00
2018-10-09T03:46:22.676Z,8.00
2018-10-09T03:47:22.616Z,8.00
2018-10-09T03:48:22.696Z,8.00
2018-10-09T03:49:22.605Z,8.00
2018-10-09T03:50:22.601Z,8.00
2018-10-09T03:51:22.610Z,8.00
2018-10-09T03:52:22.584Z,8.00
2018-10-09T03:53:22.575Z,8.00
2018-10-09T03:54:22.574Z,8.00
2018-10-09T03:55:22.569Z,8.00
2018-10-09T03:56:22.562Z,8.00
2018-10-09T03:57:22.558Z,8.00
2018-10-09T03:58:22.555Z,8.00
2018-10-09T03:59:22.550Z,8.00
2018-10-09T04:00:22.543Z,8.00
2018-10-09T04:01:22.553Z,8.00
2018-10-09T04:02:22.541Z,8.00
2018-10-09T04:03:22.530Z,8.00
2018-10-09T04:04:22.530Z,8.00
2018-10-09T04:05:22.521Z,8.00
2018-10-09T04:06:22.517Z,8.00
2018-10-09T04:07:22.512Z,8.00
2018-10-09T04:08:22.510Z,8.00
2018-10-09T04:09:22.515Z,8.00
2018-10-09T04:10:22.498Z,8.00
2018-10-09T04:11:22.494Z,8.00
2018-10-09T04:12:22.489Z,8.00
2018-10-09T04:13:22.486Z,8.00
2018-10-09T04:14:22.479Z,8.00
2018-10-09T04:15:22.475Z,8.00
2018-10-09T04:16:22.469Z,8.00
2018-10-09T04:17:22.466Z,8.00
2018-10-09T04:18:22.462Z,8.00
2018-10-09T04:19:22.563Z,8.00
2018-10-09T04:20:22.452Z,8.00
2018-10-09T04:21:22.449Z,8.00
2018-10-09T04:22:22.452Z,8.00
2018-10-09T04:23:22.440Z,8.00
2018-10-09T04:24:22.435Z,8.00
2018-10-09T04:25:22.428Z,8.00
2018-10-09T04:26:22.425Z,8.00
2018-10-09T04:27:22.419Z,8.00
2018-10-09T04:28:22.412Z,8.00
2018-10-09T04:29:22.451Z,8.00
2018-10-09T04:30:22.403Z,8.00
2018-10-09T04:31:22.403Z,8.00
2018-10-09T04:32:22.395Z,8.00
2018-10-09T04:33:22.399Z,8.00
2018-10-09T04:34:22.386Z,8.00
2018-10-09T04:35:22.386Z,8.00
2018-10-09T04:36:22.376Z,8.00
2018-10-09T04:37:22.371Z,8.00
2018-10-09T04:38:22.366Z,8.00
2018-10-09T04:39:22.363Z,8.00
2018-10-09T04:40:22.360Z,8.00
2018-10-09T04:41:22.354Z,8.00
2018-10-09T04:42:22.348Z,8.00
2018-10-09T04:43:22.343Z,8.00
2018-10-09T04:44:22.337Z,8.00
2018-10-09T04:45:22.340Z,8.00
2018-10-09T04:46:22.333Z,8.00
2018-10-09T04:47:22.325Z,8.00
2018-10-09T04:48:22.330Z,8.00
2018-10-09T04:49:22.315Z,8.00
2018-10-09T04:50:22.311Z,8.00
2018-10-09T04:51:22.307Z,8.00
2018-10-09T04:52:22.300Z,8.00
2018-10-09T04:53:22.299Z,8.00
2018-10-09T04:54:22.348Z,8.00
2018-10-09T04:55:22.286Z,12.00
2018-10-09T04:56:22.285Z,16.00
2018-10-09T04:57:22.277Z,16.00
2018-10-09T04:58:22.273Z,16.00
2018-10-09T04:59:22.268Z,20.00
2018-10-09T05:00:22.268Z,16.00
2018-10-09T05:01:22.259Z,16.00
2018-10-09T05:02:22.253Z,16.00
2018-10-09T05:03:22.249Z,20.00
2018-10-09T05:04:22.245Z,20.00
2018-10-09T05:05:22.238Z,16.00
2018-10-09T05:06:22.235Z,20.00
2018-10-09T05:07:22.231Z,20.00
2018-10-09T05:08:22.226Z,20.00
2018-10-09T05:09:22.221Z,20.00
2018-10-09T05:10:22.215Z,20.00
2018-10-09T05:11:22.211Z,20.00
2018-10-09T05:12:22.205Z,24.00
2018-10-09T05:13:22.203Z,20.00
2018-10-09T05:14:22.239Z,20.00
2018-10-09T05:15:22.192Z,20.00
2018-10-09T05:16:22.187Z,20.00
2018-10-09T05:17:22.182Z,24.00
2018-10-09T05:18:22.183Z,24.00
2018-10-09T05:19:22.173Z,28.00
2018-10-09T05:20:22.166Z,28.00
2018-10-09T05:21:22.163Z,32.00
2018-10-09T05:22:22.157Z,32.00
2018-10-09T05:23:22.227Z,32.00
2018-10-09T05:24:22.152Z,36.00
2018-10-09T05:25:22.143Z,40.00
2018-10-09T05:26:22.140Z,40.00
2018-10-09T05:27:22.136Z,44.00
2018-10-09T05:28:22.131Z,48.00
2018-10-09T05:29:22.124Z,56.00
2018-10-09T05:30:22.126Z,56.00
2018-10-09T05:31:22.285Z,60.00
2018-10-09T05:32:22.111Z,68.00
2018-10-09T05:33:22.108Z,72.00
2018-10-09T05:34:22.103Z,80.00
2018-10-09T05:35:22.097Z,80.00
2018-10-09T05:36:22.093Z,88.00
2018-10-09T05:37:22.090Z,96.00
2018-10-09T05:38:22.104Z,104.00
2018-10-09T05:39:22.079Z,112.00
2018-10-09T05:40:22.074Z,120.00
2018-10-09T05:41:22.075Z,132.00
2018-10-09T05:42:22.064Z,140.00
2018-10-09T05:43:22.061Z,148.00
2018-10-09T05:44:22.169Z,160.00
2018-10-09T05:45:22.048Z,172.00
2018-10-09T05:46:22.045Z,192.00
2018-10-09T05:47:22.040Z,204.00
2018-10-09T05:48:22.041Z,216.00
2018-10-09T05:49:22.027Z,228.00
2018-10-09T05:50:22.025Z,240.00
2018-10-09T05:51:22.022Z,256.00
2018-10-09T05:52:22.049Z,260.00
2018-10-09T05:53:22.010Z,268.00
2018-10-09T05:54:22.004Z,276.00
2018-10-09T05:55:22.002Z,288.00
2018-10-09T05:56:21.997Z,308.00
2018-10-09T05:57:21.991Z,332.00
2018-10-09T05:58:21.987Z,360.00
2018-10-09T05:59:21.986Z,376.00
2018-10-09T06:00:21.981Z,388.00
2018-10-09T06:01:21.972Z,400.00
2018-10-09T06:02:21.968Z,424.00
2018-10-09T06:03:21.961Z,444.00
2018-10-09T06:04:21.957Z,452.00
2018-10-09T06:05:21.952Z,452.00
2018-10-09T06:06:21.952Z,452.00
2018-10-09T06:07:21.945Z,464.00
2018-10-09T06:08:21.939Z,476.00
2018-10-09T06:09:21.933Z,488.00
2018-10-09T06:10:21.928Z,496.00
2018-10-09T06:11:21.922Z,504.00
2018-10-09T06:12:21.919Z,508.00
2018-10-09T06:13:21.916Z,500.00
2018-10-09T06:14:21.910Z,492.00
2018-10-09T06:15:21.906Z,476.00
2018-10-09T06:16:21.900Z,484.00
2018-10-09T06:17:21.897Z,500.00
2018-10-09T06:18:21.888Z,524.00
2018-10-09T06:19:21.887Z,536.00
2018-10-09T06:20:21.880Z,548.00
2018-10-09T06:21:21.880Z,540.00
2018-10-09T06:22:21.909Z,532.00
2018-10-09T06:23:21.868Z,536.00
2018-10-09T06:24:21.863Z,536.00
2018-10-09T06:25:21.857Z,552.00
2018-10-09T06:26:21.852Z,560.00
2018-10-09T06:27:21.848Z,556.00
2018-10-09T06:28:21.898Z,564.00
2018-10-09T06:29:21.840Z,572.00
2018-10-09T06:30:21.837Z,596.00
2018-10-09T06:31:21.831Z,624.00
2018-10-09T06:32:21.826Z,636.00
2018-10-09T06:33:21.824Z,656.00
2018-10-09T06:34:21.821Z,668.00
2018-10-09T06:35:21.817Z,688.00
2018-10-09T06:36:21.809Z,720.00
2018-10-09T06:37:21.850Z,772.00
2018-10-09T06:38:21.800Z,768.00
2018-10-09T06:39:21.796Z,796.00
2018-10-09T06:40:21.826Z,796.00
2018-10-09T06:41:21.796Z,748.00
2018-10-09T06:42:21.793Z,752.00
2018-10-09T06:43:21.786Z,792.00
2018-10-09T06:44:21.820Z,804.00
2018-10-09T06:45:21.766Z,800.00
2018-10-09T06:46:21.763Z,804.00
2018-10-09T06:47:21.768Z,764.00
2018-10-09T06:48:21.816Z,768.00
2018-10-09T06:49:21.750Z,800.00
2018-10-09T06:50:21.743Z,768.00
2018-10-09T06:51:21.740Z,748.00
2018-10-09T06:52:21.741Z,752.00
2018-10-09T06:53:21.787Z,768.00
2018-10-09T06:54:21.779Z,776.00
2018-10-09T06:55:21.724Z,808.00
2018-10-09T06:56:21.718Z,812.00
2018-10-09T06:57:21.713Z,788.00
2018-10-09T06:58:21.710Z,780.00
2018-10-09T06:59:21.708Z,784.00
2018-10-09T07:00:21.780Z,800.00
2018-10-09T07:01:21.709Z,820.00
2018-10-09T07:02:21.691Z,828.00
2018-10-09T07:03:21.687Z,804.00
2018-10-09T07:04:21.683Z,780.00
2018-10-09T07:05:21.681Z,792.00
2018-10-09T07:06:21.675Z,812.00
2018-10-09T07:07:21.673Z,876.00
2018-10-09T07:08:21.675Z,952.00
2018-10-09T07:09:21.711Z,1004.00
2018-10-09T07:10:21.658Z,1048.00
2018-10-09T07:11:21.686Z,1144.00
2018-10-09T07:12:21.654Z,1212.00
2018-10-09T07:13:21.642Z,1240.00
2018-10-09T07:14:21.644Z,1352.00
2018-10-09T07:15:21.635Z,1444.00
2018-10-09T07:16:21.630Z,1528.00
2018-10-09T07:17:21.628Z,1624.00
2018-10-09T07:18:21.623Z,1664.00
2018-10-09T07:19:21.635Z,1652.00
2018-10-09T07:20:21.614Z,1644.00
2018-10-09T07:21:21.625Z,1572.00
2018-10-09T07:22:21.608Z,1528.00
2018-10-09T07:23:21.602Z,1536.00
2018-10-09T07:24:21.600Z,1512.00
2018-10-09T07:25:21.593Z,1472.00
2018-10-09T07:26:21.590Z,1476.00
2018-10-09T07:27:21.596Z,1508.00
2018-10-09T07:28:21.586Z,1456.00
2018-10-09T07:29:21.579Z,1444.00
2018-10-09T07:30:21.578Z,1492.00
2018-10-09T07:31:21.570Z,1556.00
2018-10-09T07:32:21.566Z,1640.00
2018-10-09T07:33:21.575Z,1612.00
2018-10-09T07:34:21.559Z,1716.00
2018-10-09T07:35:21.555Z,1720.00
2018-10-09T07:36:21.549Z,1736.00
2018-10-09T07:37:21.592Z,1808.00
2018-10-09T07:38:21.544Z,1768.00
2018-10-09T07:39:21.542Z,1720.00
2018-10-09T07:40:21.532Z,1660.00
2018-10-09T07:41:21.531Z,1772.00
2018-10-09T07:42:21.527Z,1860.00
2018-10-09T07:43:21.526Z,1972.00
2018-10-09T07:44:21.587Z,1964.00
2018-10-09T07:45:21.518Z,1924.00
2018-10-09T07:46:21.513Z,2012.00
2018-10-09T07:47:21.509Z,2004.00
2018-10-09T07:48:21.504Z,1920.00
2018-10-09T07:49:21.503Z,1820.00
2018-10-09T07:50:21.495Z,1732.00
2018-10-09T07:51:21.496Z,1756.00
2018-10-09T07:52:21.491Z,1752.00
2018-10-09T07:53:21.485Z,1812.00
2018-10-09T07:54:21.480Z,1812.00
2018-10-09T07:55:21.478Z,1828.00
2018-10-09T07:56:21.480Z,1744.00
2018-10-09T07:57:21.472Z,1744.00
2018-10-09T07:58:21.469Z,1832.00
2018-10-09T07:59:21.464Z,1948.00
2018-10-09T08:00:21.460Z,2056.00
2018-10-09T08:01:21.455Z,2028.00
2018-10-09T08:02:21.454Z,2028.00
2018-10-09T08:03:21.448Z,2096.00
2018-10-09T08:04:21.464Z,2080.00
2018-10-09T08:05:21.440Z,2124.00
2018-10-09T08:06:21.437Z,2164.00
2018-10-09T08:07:21.433Z,2388.00
2018-10-09T08:08:21.433Z,2620.00
2018-10-09T08:09:21.425Z,2592.00
2018-10-09T08:10:21.452Z,2568.00
2018-10-09T08:11:21.424Z,2668.00
2018-10-09T08:12:21.416Z,2676.00
2018-10-09T08:13:21.413Z,2656.00
2018-10-09T08:14:21.410Z,2792.00
2018-10-09T08:15:21.408Z,2824.00
2018-10-09T08:16:21.453Z,2800.00
2018-10-09T08:17:21.399Z,2704.00
2018-10-09T08:18:21.400Z,2764.00
2018-10-09T08:19:21.393Z,2832.00
2018-10-09T08:20:21.391Z,2980.00
2018-10-09T08:21:21.387Z,3040.00
2018-10-09T08:22:21.420Z,3120.00
2018-10-09T08:23:21.381Z,3240.00
2018-10-09T08:24:21.378Z,3240.00
2018-10-09T08:25:21.376Z,3148.00
2018-10-09T08:26:21.374Z,3328.00
2018-10-09T08:27:21.369Z,3408.00
2018-10-09T08:28:21.373Z,3324.00
2018-10-09T08:29:21.364Z,3292.00
2018-10-09T08:30:21.360Z,3252.00
2018-10-09T08:31:21.357Z,3168.00
2018-10-09T08:32:21.429Z,3140.00
2018-10-09T08:33:21.354Z,3048.00
2018-10-09T08:34:21.430Z,2996.00
2018-10-09T08:35:21.349Z,2948.00
2018-10-09T08:36:21.342Z,2948.00
2018-10-09T08:37:21.339Z,2884.00
2018-10-09T08:38:21.339Z,2860.00
2018-10-09T08:39:21.335Z,2864.00
2018-10-09T08:40:21.357Z,2860.00
2018-10-09T08:41:21.352Z,2836.00
2018-10-09T08:42:21.325Z,2832.00
2018-10-09T08:43:21.329Z,2844.00
2018-10-09T08:44:21.319Z,2832.00
2018-10-09T08:45:21.314Z,2868.00
2018-10-09T08:46:21.402Z,2868.00
2018-10-09T08:47:21.316Z,2852.00
2018-10-09T08:48:21.308Z,2836.00
2018-10-09T08:49:21.304Z,2844.00
2018-10-09T08:50:21.303Z,2852.00
2018-10-09T08:51:21.302Z,2856.00
2018-10-09T08:52:21.300Z,2872.00
2018-10-09T08:53:21.296Z,2860.00
2018-10-09T08:54:21.293Z,2860.00
2018-10-09T08:55:21.292Z,2876.00
2018-10-09T08:56:21.285Z,2884.00
2018-10-09T08:57:21.327Z,2872.00
2018-10-09T08:58:21.281Z,2832.00
2018-10-09T08:59:21.283Z,2804.00
2018-10-09T09:00:21.276Z,2760.00
2018-10-09T09:01:21.274Z,2732.00
2018-10-09T09:02:21.271Z,2724.00
2018-10-09T09:03:21.292Z,2720.00
2018-10-09T09:04:21.264Z,2728.00
2018-10-09T09:05:21.262Z,2728.00
2018-10-09T09:06:21.287Z,2724.00
2018-10-09T09:07:21.258Z,2724.00
2018-10-09T09:08:21.257Z,2704.00
2018-10-09T09:09:21.253Z,2680.00
2018-10-09T09:10:21.251Z,2672.00
2018-10-09T09:11:21.248Z,2672.00
2018-10-09T09:12:21.245Z,2664.00
2018-10-09T09:13:21.243Z,2672.00
2018-10-09T09:14:21.239Z,2676.00
2018-10-09T09:15:21.250Z,2676.00
2018-10-09T09:16:21.235Z,2672.00
2018-10-09T09:17:21.231Z,2672.00
2018-10-09T09:18:21.229Z,2640.00
2018-10-09T09:19:21.230Z,2616.00
2018-10-09T09:20:21.243Z,2600.00
2018-10-09T09:21:21.252Z,2788.00
2018-10-09T09:22:21.323Z,2548.00
2018-10-09T09:23:22.340Z,2512.00
2018-10-09T09:24:21.388Z,2492.00
2018-10-09T09:25:21.280Z,2492.00
2018-10-09T09:26:21.215Z,2504.00
2018-10-09T09:27:21.233Z,2512.00
2018-10-09T09:28:21.207Z,2524.00
2018-10-09T09:29:21.222Z,2548.00
2018-10-09T09:30:21.202Z,2560.00
2018-10-09T09:31:21.200Z,2552.00
2018-10-09T09:32:21.196Z,2564.00
2018-10-09T09:33:21.203Z,2568.00
2018-10-09T09:34:21.201Z,2596.00
2018-10-09T09:35:21.196Z,2624.00
2018-10-09T09:36:21.191Z,2632.00
2018-10-09T09:37:21.187Z,2652.00
2018-10-09T09:38:21.201Z,2660.00
2018-10-09T09:39:21.183Z,2636.00
2018-10-09T09:40:21.180Z,2600.00
2018-10-09T09:41:21.184Z,2540.00
2018-10-09T09:42:21.177Z,2484.00
2018-10-09T09:43:21.176Z,2448.00
2018-10-09T09:44:21.179Z,2428.00
2018-10-09T09:45:21.172Z,2392.00
2018-10-09T09:46:21.259Z,2360.00
2018-10-09T09:47:21.166Z,2304.00
2018-10-09T09:48:21.165Z,2268.00
2018-10-09T09:49:21.161Z,2280.00
2018-10-09T09:50:21.164Z,2288.00
2018-10-09T09:51:21.169Z,2276.00
2018-10-09T09:52:21.376Z,2232.00
2018-10-09T09:53:21.152Z,2176.00
2018-10-09T09:54:21.154Z,2196.00
2018-10-09T09:55:21.150Z,2212.00
2018-10-09T09:56:21.205Z,2260.00
2018-10-09T09:57:21.146Z,2280.00
2018-10-09T09:58:21.225Z,2300.00
2018-10-09T09:59:21.234Z,2336.00
2018-10-09T10:00:21.153Z,2364.00
2018-10-09T10:01:21.141Z,2372.00
2018-10-09T10:02:21.136Z,2380.00
2018-10-09T10:03:21.137Z,2392.00
2018-10-09T10:04:21.153Z,2388.00
2018-10-09T10:05:21.140Z,2432.00
2018-10-09T10:06:21.149Z,2420.00
2018-10-09T10:07:21.132Z,2416.00
2018-10-09T10:08:21.125Z,2460.00
2018-10-09T10:09:21.159Z,2508.00
2018-10-09T10:10:21.132Z,2596.00
2018-10-09T10:11:21.124Z,2664.00
2018-10-09T10:12:21.119Z,2684.00
2018-10-09T10:13:21.124Z,2656.00
2018-10-09T10:14:21.115Z,2688.00
2018-10-09T10:15:21.115Z,2684.00
2018-10-09T10:16:21.116Z,2648.00
2018-10-09T10:17:21.112Z,2620.00
2018-10-09T10:18:21.111Z,2580.00
2018-10-09T10:19:21.108Z,2524.00
2018-10-09T10:20:21.119Z,2516.00
2018-10-09T10:21:21.123Z,2488.00
2018-10-09T10:22:21.108Z,2448.00
2018-10-09T10:23:21.103Z,2404.00
2018-10-09T10:24:21.101Z,2444.00
2018-10-09T10:25:21.102Z,2524.00
2018-10-09T10:26:21.101Z,2580.00
2018-10-09T10:27:21.098Z,2616.00
2018-10-09T10:28:21.098Z,2680.00
2018-10-09T10:29:21.097Z,2740.00
2018-10-09T10:30:21.091Z,2644.00
2018-10-09T10:31:21.091Z,2512.00
2018-10-09T10:32:21.088Z,2456.00
2018-10-09T10:33:21.087Z,2360.00
2018-10-09T10:34:21.099Z,2296.00
2018-10-09T10:35:21.090Z,2204.00
2018-10-09T10:36:21.092Z,2064.00
2018-10-09T10:37:21.090Z,1996.00
2018-10-09T10:38:21.087Z,2008.00
2018-10-09T10:39:21.081Z,2016.00
2018-10-09T10:40:21.080Z,2000.00
2018-10-09T10:41:21.082Z,2008.00
2018-10-09T10:42:21.078Z,2032.00
2018-10-09T10:43:21.085Z,2044.00
2018-10-09T10:44:21.082Z,2060.00
2018-10-09T10:45:21.073Z,2100.00
2018-10-09T10:46:21.075Z,2116.00
2018-10-09T10:47:21.080Z,2128.00
2018-10-09T10:48:21.068Z,2148.00
2018-10-09T10:49:21.110Z,2140.00
2018-10-09T10:50:21.074Z,2128.00
2018-10-09T10:51:21.070Z,2080.00
2018-10-09T10:52:21.069Z,2104.00
2018-10-09T10:53:21.062Z,2104.00
2018-10-09T10:54:21.092Z,2072.00
2018-10-09T10:55:21.063Z,2068.00
2018-10-09T10:56:21.060Z,2060.00
2018-10-09T10:57:21.061Z,2048.00
2018-10-09T10:58:21.060Z,2028.00
2018-10-09T10:59:21.141Z,1984.00
2018-10-09T11:00:21.063Z,1980.00
2018-10-09T11:01:21.115Z,1936.00
2018-10-09T11:02:21.055Z,1956.00
2018-10-09T11:03:21.057Z,1952.00
2018-10-09T11:04:21.055Z,1980.00
2018-10-09T11:05:21.055Z,1984.00
2018-10-09T11:06:21.051Z,1992.00
2018-10-09T11:07:21.058Z,2000.00
2018-10-09T11:08:21.104Z,2024.00
2018-10-09T11:09:21.050Z,2020.00
2018-10-09T11:10:21.048Z,1996.00
2018-10-09T11:11:21.048Z,1980.00
2018-10-09T11:12:21.047Z,1968.00
2018-10-09T11:13:21.050Z,1940.00
2018-10-09T11:14:21.045Z,1932.00
2018-10-09T11:15:21.047Z,1912.00
2018-10-09T11:16:21.060Z,1912.00
2018-10-09T11:17:21.047Z,1892.00
2018-10-09T11:18:21.044Z,1884.00
2018-10-09T11:19:21.044Z,1888.00
2018-10-09T11:20:21.041Z,1872.00
2018-10-09T11:21:21.150Z,1856.00
2018-10-09T11:22:21.043Z,1820.00
2018-10-09T11:23:21.045Z,1792.00
2018-10-09T11:24:21.040Z,1764.00
2018-10-09T11:25:21.043Z,1768.00
2018-10-09T11:26:21.040Z,1760.00
2018-10-09T11:27:21.044Z,1764.00
2018-10-09T11:28:21.040Z,1752.00
2018-10-09T11:29:21.063Z,1720.00
2018-10-09T11:30:21.053Z,1708.00
2018-10-09T11:31:21.043Z,1708.00
2018-10-09T11:32:21.061Z,1704.00
2018-10-09T11:33:21.038Z,1720.00
2018-10-09T11:34:21.040Z,1724.00
2018-10-09T11:35:21.034Z,1728.00
2018-10-09T11:36:21.036Z,1736.00
2018-10-09T11:37:21.036Z,1736.00
2018-10-09T11:38:21.036Z,1744.00
2018-10-09T11:39:21.037Z,1752.00
2018-10-09T11:40:21.043Z,1756.00
2018-10-09T11:41:21.036Z,1764.00
2018-10-09T11:42:21.034Z,1780.00
2018-10-09T11:43:21.033Z,1780.00
2018-10-09T11:44:21.030Z,1780.00
2018-10-09T11:45:21.033Z,1796.00
2018-10-09T11:46:21.034Z,1828.00
2018-10-09T11:47:21.043Z,1832.00
2018-10-09T11:48:21.030Z,1832.00
2018-10-09T11:49:21.031Z,1864.00
2018-10-09T11:50:21.030Z,1864.00
2018-10-09T11:51:21.031Z,1860.00
2018-10-09T11:52:21.037Z,1868.00
2018-10-09T11:53:21.028Z,1876.00
2018-10-09T11:54:21.030Z,1872.00
2018-10-09T11:55:21.033Z,1864.00
2018-10-09T11:56:21.028Z,1852.00
2018-10-09T11:57:21.028Z,1844.00
2018-10-09T11:58:21.029Z,1868.00
2018-10-09T11:59:21.030Z,1888.00
2018-10-09T12:00:21.027Z,1908.00
2018-10-09T12:01:21.029Z,1928.00
2018-10-09T12:02:21.031Z,1944.00
2018-10-09T12:03:21.028Z,1948.00
2018-10-09T12:04:21.028Z,1956.00
2018-10-09T12:05:21.029Z,1968.00
2018-10-09T12:06:21.031Z,1968.00
2018-10-09T12:07:21.027Z,1968.00
2018-10-09T12:08:21.027Z,1960.00
2018-10-09T12:09:21.028Z,1952.00
2018-10-09T12:10:21.027Z,1944.00
2018-10-09T12:11:21.032Z,1920.00
2018-10-09T12:12:21.028Z,1928.00
2018-10-09T12:13:21.028Z,1924.00
2018-10-09T12:14:21.031Z,1912.00
2018-10-09T12:15:21.028Z,1936.00
2018-10-09T12:16:21.040Z,1940.00
2018-10-09T12:17:21.028Z,1940.00
2018-10-09T12:18:21.030Z,1940.00
2018-10-09T12:19:21.031Z,1932.00
2018-10-09T12:20:21.029Z,1932.00
2018-10-09T12:21:21.084Z,1944.00
2018-10-09T12:22:21.040Z,1936.00
2018-10-09T12:23:21.031Z,1972.00
2018-10-09T12:24:21.029Z,1976.00
2018-10-09T12:25:21.033Z,1968.00
2018-10-09T12:26:21.035Z,1968.00
2018-10-09T12:27:21.061Z,1972.00
2018-10-09T12:28:21.031Z,1992.00
2018-10-09T12:29:21.047Z,1984.00
2018-10-09T12:30:21.041Z,1964.00
2018-10-09T12:31:21.034Z,1964.00
2018-10-09T12:32:21.032Z,1968.00
2018-10-09T12:33:21.041Z,1972.00
2018-10-09T12:34:21.037Z,1944.00
2018-10-09T12:35:21.040Z,1912.00
2018-10-09T12:36:21.036Z,1920.00
2018-10-09T12:37:21.035Z,1972.00